sensor_id;sensor_type;location;lat;lon;timestamp;temperature;humidity
18974;DHT22;9621;48.690;9.466;2023-06-14T00:01:51;8.80;69.50
18974;DHT22;9621;48.690;9.466;2023-06-14T00:04:18;8.70;69.60
18974;DHT22;9621;48.690;9.466;2023-06-14T00:06:47;8.70;69.80
18974;DHT22;9621;48.690;9.466;2023-06-14T00:09:16;8.70;70.00
18974;DHT22;9621;48.690;9.466;2023-06-14T00:11:43;8.70;69.80
18974;DHT22;9621;48.690;9.466;2023-06-14T00:14:10;8.70;70.00
18974;DHT22;9621;48.690;9.466;2023-06-14T00:16:37;8.60;70.20
18974;DHT22;9621;48.690;9.466;2023-06-14T00:19:04;8.60;70.40
18974;DHT22;9621;48.690;9.466;2023-06-14T00:21:31;8.60;70.60
18974;DHT22;9621;48.690;9.466;2023-06-14T00:23:59;8.50;70.50
18974;DHT22;9621;48.690;9.466;2023-06-14T00:26:26;8.50;71.00
18974;DHT22;9621;48.690;9.466;2023-06-14T00:28:53;8.40;70.70
18974;DHT22;9621;48.690;9.466;2023-06-14T00:31:22;8.40;71.10
18974;DHT22;9621;48.690;9.466;2023-06-14T00:33:49;8.40;71.60
18974;DHT22;9621;48.690;9.466;2023-06-14T00:36:15;8.30;71.70
18974;DHT22;9621;48.690;9.466;2023-06-14T00:38:42;8.30;71.90
18974;DHT22;9621;48.690;9.466;2023-06-14T00:41:10;8.20;72.30
18974;DHT22;9621;48.690;9.466;2023-06-14T00:43:37;8.20;73.00
18974;DHT22;9621;48.690;9.466;2023-06-14T00:46:04;8.10;72.40
18974;DHT22;9621;48.690;9.466;2023-06-14T00:48:31;8.10;72.40
18974;DHT22;9621;48.690;9.466;2023-06-14T00:51:00;8.00;72.60
18974;DHT22;9621;48.690;9.466;2023-06-14T00:53:29;8.00;73.00
18974;DHT22;9621;48.690;9.466;2023-06-14T00:55:59;7.90;73.10
18974;DHT22;9621;48.690;9.466;2023-06-14T00:58:28;7.90;73.10
18974;DHT22;9621;48.690;9.466;2023-06-14T01:00:55;7.80;73.30
18974;DHT22;9621;48.690;9.466;2023-06-14T01:03:23;7.80;73.40
18974;DHT22;9621;48.690;9.466;2023-06-14T01:05:56;7.80;73.40
18974;DHT22;9621;48.690;9.466;2023-06-14T01:08:34;7.80;74.30
18974;DHT22;9621;48.690;9.466;2023-06-14T01:11:05;7.80;74.60
18974;DHT22;9621;48.690;9.466;2023-06-14T01:13:37;7.70;74.30
18974;DHT22;9621;48.690;9.466;2023-06-14T01:16:06;7.70;75.00
18974;DHT22;9621;48.690;9.466;2023-06-14T01:18:34;7.70;74.70
18974;DHT22;9621;48.690;9.466;2023-06-14T01:21:01;7.60;74.60
18974;DHT22;9621;48.690;9.466;2023-06-14T01:23:33;7.60;75.00
18974;DHT22;9621;48.690;9.466;2023-06-14T01:26:00;7.60;75.30
18974;DHT22;9621;48.690;9.466;2023-06-14T01:28:29;7.50;74.90
18974;DHT22;9621;48.690;9.466;2023-06-14T01:31:00;7.50;75.00
18974;DHT22;9621;48.690;9.466;2023-06-14T01:33:31;7.50;75.00
18974;DHT22;9621;48.690;9.466;2023-06-14T01:35:59;7.40;75.20
18974;DHT22;9621;48.690;9.466;2023-06-14T01:38:28;7.40;75.50
18974;DHT22;9621;48.690;9.466;2023-06-14T01:40:59;7.40;75.60
18974;DHT22;9621;48.690;9.466;2023-06-14T01:43:29;7.40;76.10
18974;DHT22;9621;48.690;9.466;2023-06-14T01:45:57;7.30;75.80
18974;DHT22;9621;48.690;9.466;2023-06-14T01:48:26;7.30;75.70
18974;DHT22;9621;48.690;9.466;2023-06-14T01:50:53;7.30;76.10
18974;DHT22;9621;48.690;9.466;2023-06-14T01:53:20;7.30;76.10
18974;DHT22;9621;48.690;9.466;2023-06-14T01:55:47;7.30;76.40
18974;DHT22;9621;48.690;9.466;2023-06-14T01:58:16;7.20;76.50
18974;DHT22;9621;48.690;9.466;2023-06-14T02:00:43;7.10;76.90
18974;DHT22;9621;48.690;9.466;2023-06-14T02:03:11;7.20;76.50
18974;DHT22;9621;48.690;9.466;2023-06-14T02:05:38;7.10;76.30
18974;DHT22;9621;48.690;9.466;2023-06-14T02:08:06;7.10;76.50
18974;DHT22;9621;48.690;9.466;2023-06-14T02:10:32;7.00;76.90
18974;DHT22;9621;48.690;9.466;2023-06-14T02:12:59;7.00;76.80
18974;DHT22;9621;48.690;9.466;2023-06-14T02:15:28;7.00;76.80
18974;DHT22;9621;48.690;9.466;2023-06-14T02:17:59;7.00;77.30
18974;DHT22;9621;48.690;9.466;2023-06-14T02:20:27;7.00;77.30
18974;DHT22;9621;48.690;9.466;2023-06-14T02:22:54;6.90;77.20
18974;DHT22;9621;48.690;9.466;2023-06-14T02:25:21;6.90;77.20
18974;DHT22;9621;48.690;9.466;2023-06-14T02:27:48;6.90;77.20
18974;DHT22;9621;48.690;9.466;2023-06-14T02:30:15;6.80;77.50
18974;DHT22;9621;48.690;9.466;2023-06-14T02:32:43;6.80;78.00
18974;DHT22;9621;48.690;9.466;2023-06-14T02:35:10;6.80;78.70
18974;DHT22;9621;48.690;9.466;2023-06-14T02:37:38;6.80;78.40
18974;DHT22;9621;48.690;9.466;2023-06-14T02:40:06;6.70;78.30
18974;DHT22;9621;48.690;9.466;2023-06-14T02:42:34;6.60;78.50
18974;DHT22;9621;48.690;9.466;2023-06-14T02:45:01;6.60;78.60
18974;DHT22;9621;48.690;9.466;2023-06-14T02:47:29;6.50;78.80
18974;DHT22;9621;48.690;9.466;2023-06-14T02:49:57;6.50;79.00
18974;DHT22;9621;48.690;9.466;2023-06-14T02:52:24;6.50;79.30
18974;DHT22;9621;48.690;9.466;2023-06-14T02:54:51;6.40;79.30
18974;DHT22;9621;48.690;9.466;2023-06-14T02:57:19;6.40;79.60
18974;DHT22;9621;48.690;9.466;2023-06-14T02:59:46;6.40;80.60
18974;DHT22;9621;48.690;9.466;2023-06-14T03:02:13;6.30;80.00
18974;DHT22;9621;48.690;9.466;2023-06-14T03:04:40;6.30;80.30
18974;DHT22;9621;48.690;9.466;2023-06-14T03:07:11;6.20;80.20
18974;DHT22;9621;48.690;9.466;2023-06-14T03:09:39;6.20;80.40
18974;DHT22;9621;48.690;9.466;2023-06-14T03:12:07;6.10;80.30
18974;DHT22;9621;48.690;9.466;2023-06-14T03:14:35;6.10;80.30
18974;DHT22;9621;48.690;9.466;2023-06-14T03:17:02;6.20;80.40
18974;DHT22;9621;48.690;9.466;2023-06-14T03:19:30;6.10;80.60
18974;DHT22;9621;48.690;9.466;2023-06-14T03:21:57;6.10;81.00
18974;DHT22;9621;48.690;9.466;2023-06-14T03:24:28;6.10;81.20
18974;DHT22;9621;48.690;9.466;2023-06-14T03:26:55;6.10;82.00
18974;DHT22;9621;48.690;9.466;2023-06-14T03:29:22;6.10;81.30
18974;DHT22;9621;48.690;9.466;2023-06-14T03:31:59;6.00;81.30
18974;DHT22;9621;48.690;9.466;2023-06-14T03:34:26;6.00;83.20
18974;DHT22;9621;48.690;9.466;2023-06-14T03:36:53;6.00;81.80
18974;DHT22;9621;48.690;9.466;2023-06-14T03:39:20;6.00;81.70
18974;DHT22;9621;48.690;9.466;2023-06-14T03:41:49;6.00;81.80
18974;DHT22;9621;48.690;9.466;2023-06-14T03:44:17;6.00;82.20
18974;DHT22;9621;48.690;9.466;2023-06-14T03:46:44;6.00;82.30
18974;DHT22;9621;48.690;9.466;2023-06-14T03:49:11;6.10;82.50
18974;DHT22;9621;48.690;9.466;2023-06-14T03:51:38;6.00;82.70
18974;DHT22;9621;48.690;9.466;2023-06-14T03:54:06;6.20;83.10
18974;DHT22;9621;48.690;9.466;2023-06-14T03:56:33;6.30;83.20
18974;DHT22;9621;48.690;9.466;2023-06-14T03:59:01;6.40;83.10
18974;DHT22;9621;48.690;9.466;2023-06-14T04:01:28;6.60;83.30
18974;DHT22;9621;48.690;9.466;2023-06-14T04:03:57;6.80;83.40
18974;DHT22;9621;48.690;9.466;2023-06-14T04:06:24;7.00;82.90
18974;DHT22;9621;48.690;9.466;2023-06-14T04:08:57;7.20;82.70
18974;DHT22;9621;48.690;9.466;2023-06-14T04:11:29;7.40;82.60
18974;DHT22;9621;48.690;9.466;2023-06-14T04:13:56;7.70;82.50
18974;DHT22;9621;48.690;9.466;2023-06-14T04:16:24;7.90;82.30
18974;DHT22;9621;48.690;9.466;2023-06-14T04:18:51;8.20;82.30
18974;DHT22;9621;48.690;9.466;2023-06-14T04:21:18;8.40;81.60
18974;DHT22;9621;48.690;9.466;2023-06-14T04:23:46;8.70;81.30
18974;DHT22;9621;48.690;9.466;2023-06-14T04:26:13;9.10;80.90
18974;DHT22;9621;48.690;9.466;2023-06-14T04:28:41;9.50;80.60
18974;DHT22;9621;48.690;9.466;2023-06-14T04:31:10;9.70;80.00
18974;DHT22;9621;48.690;9.466;2023-06-14T04:33:38;10.10;79.50
18974;DHT22;9621;48.690;9.466;2023-06-14T04:36:09;10.50;79.20
18974;DHT22;9621;48.690;9.466;2023-06-14T04:38:37;10.70;78.30
18974;DHT22;9621;48.690;9.466;2023-06-14T04:41:04;11.00;77.70
18974;DHT22;9621;48.690;9.466;2023-06-14T04:43:31;11.30;77.20
18974;DHT22;9621;48.690;9.466;2023-06-14T04:46:04;11.60;76.70
18974;DHT22;9621;48.690;9.466;2023-06-14T04:48:36;11.90;76.10
18974;DHT22;9621;48.690;9.466;2023-06-14T04:51:07;12.20;75.40
18974;DHT22;9621;48.690;9.466;2023-06-14T04:53:35;12.50;74.60
18974;DHT22;9621;48.690;9.466;2023-06-14T04:56:02;12.80;74.10
18974;DHT22;9621;48.690;9.466;2023-06-14T04:58:29;13.10;73.40
18974;DHT22;9621;48.690;9.466;2023-06-14T05:00:57;13.30;72.80
18974;DHT22;9621;48.690;9.466;2023-06-14T05:03:24;13.50;72.30
18974;DHT22;9621;48.690;9.466;2023-06-14T05:05:52;13.70;71.90
18974;DHT22;9621;48.690;9.466;2023-06-14T05:08:21;13.80;71.30
18974;DHT22;9621;48.690;9.466;2023-06-14T05:10:49;14.00;70.80
18974;DHT22;9621;48.690;9.466;2023-06-14T05:13:16;14.30;70.80
18974;DHT22;9621;48.690;9.466;2023-06-14T05:15:43;14.50;70.20
18974;DHT22;9621;48.690;9.466;2023-06-14T05:18:10;14.80;69.70
18974;DHT22;9621;48.690;9.466;2023-06-14T05:20:39;15.10;69.10
18974;DHT22;9621;48.690;9.466;2023-06-14T05:23:07;15.50;68.50
18974;DHT22;9621;48.690;9.466;2023-06-14T05:25:35;15.80;67.80
18974;DHT22;9621;48.690;9.466;2023-06-14T05:28:03;16.10;67.00
18974;DHT22;9621;48.690;9.466;2023-06-14T05:30:32;16.40;66.50
18974;DHT22;9621;48.690;9.466;2023-06-14T05:32:59;16.70;65.90
18974;DHT22;9621;48.690;9.466;2023-06-14T05:35:26;17.00;65.00
18974;DHT22;9621;48.690;9.466;2023-06-14T05:37:53;17.20;64.20
18974;DHT22;9621;48.690;9.466;2023-06-14T05:40:20;17.50;63.70
18974;DHT22;9621;48.690;9.466;2023-06-14T05:42:48;17.70;63.10
18974;DHT22;9621;48.690;9.466;2023-06-14T05:45:16;18.00;62.60
18974;DHT22;9621;48.690;9.466;2023-06-14T05:47:42;18.30;63.00
18974;DHT22;9621;48.690;9.466;2023-06-14T05:50:10;18.50;61.30
18974;DHT22;9621;48.690;9.466;2023-06-14T05:52:37;18.70;60.30
18974;DHT22;9621;48.690;9.466;2023-06-14T05:55:04;19.00;59.40
18974;DHT22;9621;48.690;9.466;2023-06-14T05:57:31;19.10;59.10
18974;DHT22;9621;48.690;9.466;2023-06-14T05:59:59;19.30;59.00
18974;DHT22;9621;48.690;9.466;2023-06-14T06:02:26;19.50;58.10
18974;DHT22;9621;48.690;9.466;2023-06-14T06:04:53;19.60;58.00
18974;DHT22;9621;48.690;9.466;2023-06-14T06:07:21;19.90;57.80
18974;DHT22;9621;48.690;9.466;2023-06-14T06:09:49;20.10;57.20
18974;DHT22;9621;48.690;9.466;2023-06-14T06:12:16;20.40;56.60
18974;DHT22;9621;48.690;9.466;2023-06-14T06:14:43;20.70;56.20
18974;DHT22;9621;48.690;9.466;2023-06-14T06:17:12;20.90;55.50
18974;DHT22;9621;48.690;9.466;2023-06-14T06:19:39;21.20;55.10
18974;DHT22;9621;48.690;9.466;2023-06-14T06:22:06;21.50;54.90
18974;DHT22;9621;48.690;9.466;2023-06-14T06:24:33;21.80;54.60
18974;DHT22;9621;48.690;9.466;2023-06-14T06:27:01;22.00;53.70
18974;DHT22;9621;48.690;9.466;2023-06-14T06:29:28;22.30;53.00
18974;DHT22;9621;48.690;9.466;2023-06-14T06:31:55;22.50;52.70
18974;DHT22;9621;48.690;9.466;2023-06-14T06:34:24;22.60;52.60
18974;DHT22;9621;48.690;9.466;2023-06-14T06:36:51;22.80;52.00
18974;DHT22;9621;48.690;9.466;2023-06-14T06:39:18;23.00;51.70
18974;DHT22;9621;48.690;9.466;2023-06-14T06:41:45;23.20;51.00
18974;DHT22;9621;48.690;9.466;2023-06-14T06:44:12;23.40;51.00
18974;DHT22;9621;48.690;9.466;2023-06-14T06:46:40;23.60;50.50
18974;DHT22;9621;48.690;9.466;2023-06-14T06:49:08;23.70;50.40
18974;DHT22;9621;48.690;9.466;2023-06-14T06:51:41;24.00;50.40
18974;DHT22;9621;48.690;9.466;2023-06-14T06:54:09;24.20;49.50
18974;DHT22;9621;48.690;9.466;2023-06-14T06:56:36;24.60;50.10
18974;DHT22;9621;48.690;9.466;2023-06-14T06:59:03;24.80;48.70
18974;DHT22;9621;48.690;9.466;2023-06-14T07:01:30;25.00;48.00
18974;DHT22;9621;48.690;9.466;2023-06-14T07:03:59;25.20;47.50
18974;DHT22;9621;48.690;9.466;2023-06-14T07:06:27;25.30;47.50
18974;DHT22;9621;48.690;9.466;2023-06-14T07:08:57;25.60;47.00
18974;DHT22;9621;48.690;9.466;2023-06-14T07:11:27;25.80;46.10
18974;DHT22;9621;48.690;9.466;2023-06-14T07:13:54;25.90;46.20
18974;DHT22;9621;48.690;9.466;2023-06-14T07:16:22;26.10;46.10
18974;DHT22;9621;48.690;9.466;2023-06-14T07:18:50;26.20;45.30
18974;DHT22;9621;48.690;9.466;2023-06-14T07:21:18;26.30;44.70
18974;DHT22;9621;48.690;9.466;2023-06-14T07:23:45;26.30;44.20
18974;DHT22;9621;48.690;9.466;2023-06-14T07:26:13;26.30;43.50
18974;DHT22;9621;48.690;9.466;2023-06-14T07:28:40;26.30;43.30
18974;DHT22;9621;48.690;9.466;2023-06-14T07:31:10;26.30;43.80
18974;DHT22;9621;48.690;9.466;2023-06-14T07:33:38;26.20;43.50
18974;DHT22;9621;48.690;9.466;2023-06-14T07:36:05;26.20;42.90
18974;DHT22;9621;48.690;9.466;2023-06-14T07:38:32;26.20;43.30
18974;DHT22;9621;48.690;9.466;2023-06-14T07:41:00;26.20;43.20
18974;DHT22;9621;48.690;9.466;2023-06-14T07:43:28;26.30;42.60
18974;DHT22;9621;48.690;9.466;2023-06-14T07:45:55;26.40;42.40
18974;DHT22;9621;48.690;9.466;2023-06-14T07:48:22;26.50;42.30
18974;DHT22;9621;48.690;9.466;2023-06-14T07:50:49;26.60;41.70
18974;DHT22;9621;48.690;9.466;2023-06-14T07:53:16;26.60;41.20
18974;DHT22;9621;48.690;9.466;2023-06-14T07:55:43;26.60;41.40
18974;DHT22;9621;48.690;9.466;2023-06-14T07:58:10;26.80;41.50
18974;DHT22;9621;48.690;9.466;2023-06-14T08:00:39;26.80;41.10
18974;DHT22;9621;48.690;9.466;2023-06-14T08:03:06;27.00;41.50
18974;DHT22;9621;48.690;9.466;2023-06-14T08:05:33;27.10;41.30
18974;DHT22;9621;48.690;9.466;2023-06-14T08:08:00;27.20;41.00
18974;DHT22;9621;48.690;9.466;2023-06-14T08:10:27;27.30;41.10
18974;DHT22;9621;48.690;9.466;2023-06-14T08:12:55;27.40;40.50
18974;DHT22;9621;48.690;9.466;2023-06-14T08:15:21;27.50;39.90
18974;DHT22;9621;48.690;9.466;2023-06-14T08:17:50;27.40;39.80
18974;DHT22;9621;48.690;9.466;2023-06-14T08:20:17;27.40;39.70
18974;DHT22;9621;48.690;9.466;2023-06-14T08:22:44;27.30;39.10
18974;DHT22;9621;48.690;9.466;2023-06-14T08:25:13;27.20;39.10
18974;DHT22;9621;48.690;9.466;2023-06-14T08:27:40;27.10;39.60
18974;DHT22;9621;48.690;9.466;2023-06-14T08:30:08;27.00;40.00
18974;DHT22;9621;48.690;9.466;2023-06-14T08:32:35;27.10;41.20
18974;DHT22;9621;48.690;9.466;2023-06-14T08:35:05;27.20;40.10
18974;DHT22;9621;48.690;9.466;2023-06-14T08:37:32;27.40;40.00
18974;DHT22;9621;48.690;9.466;2023-06-14T08:40:00;27.60;39.20
18974;DHT22;9621;48.690;9.466;2023-06-14T08:42:27;27.60;38.30
18974;DHT22;9621;48.690;9.466;2023-06-14T08:44:54;27.60;38.50
18974;DHT22;9621;48.690;9.466;2023-06-14T08:47:21;27.50;38.50
18974;DHT22;9621;48.690;9.466;2023-06-14T08:49:51;27.40;39.60
18974;DHT22;9621;48.690;9.466;2023-06-14T08:52:22;27.40;38.60
18974;DHT22;9621;48.690;9.466;2023-06-14T08:54:49;27.40;38.10
18974;DHT22;9621;48.690;9.466;2023-06-14T08:57:16;27.30;37.80
18974;DHT22;9621;48.690;9.466;2023-06-14T08:59:47;27.20;38.30
18974;DHT22;9621;48.690;9.466;2023-06-14T09:02:18;27.10;38.40
18974;DHT22;9621;48.690;9.466;2023-06-14T09:04:45;27.00;38.50
18974;DHT22;9621;48.690;9.466;2023-06-14T09:07:12;27.00;38.90
18974;DHT22;9621;48.690;9.466;2023-06-14T09:09:41;27.10;38.60
18974;DHT22;9621;48.690;9.466;2023-06-14T09:12:10;27.20;38.20
18974;DHT22;9621;48.690;9.466;2023-06-14T09:14:38;27.30;38.10
18974;DHT22;9621;48.690;9.466;2023-06-14T09:17:07;27.30;38.00
18974;DHT22;9621;48.690;9.466;2023-06-14T09:19:34;27.50;38.10
18974;DHT22;9621;48.690;9.466;2023-06-14T09:22:04;27.60;38.10
18974;DHT22;9621;48.690;9.466;2023-06-14T09:24:31;27.70;38.20
18974;DHT22;9621;48.690;9.466;2023-06-14T09:27:00;27.90;39.00
18974;DHT22;9621;48.690;9.466;2023-06-14T09:29:27;28.30;38.30
18974;DHT22;9621;48.690;9.466;2023-06-14T09:31:54;28.50;38.00
18974;DHT22;9621;48.690;9.466;2023-06-14T09:34:21;28.80;37.50
18974;DHT22;9621;48.690;9.466;2023-06-14T09:36:50;29.00;37.20
18974;DHT22;9621;48.690;9.466;2023-06-14T09:39:17;29.10;36.60
18974;DHT22;9621;48.690;9.466;2023-06-14T09:41:44;29.10;35.70
18974;DHT22;9621;48.690;9.466;2023-06-14T09:44:13;29.10;35.90
18974;DHT22;9621;48.690;9.466;2023-06-14T09:46:39;29.10;36.50
18974;DHT22;9621;48.690;9.466;2023-06-14T09:49:07;29.30;36.80
18974;DHT22;9621;48.690;9.466;2023-06-14T09:51:36;29.50;35.20
18974;DHT22;9621;48.690;9.466;2023-06-14T09:54:04;29.50;35.10
18974;DHT22;9621;48.690;9.466;2023-06-14T09:56:36;29.50;35.50
18974;DHT22;9621;48.690;9.466;2023-06-14T09:59:05;29.50;35.30
18974;DHT22;9621;48.690;9.466;2023-06-14T10:01:35;29.60;35.30
18974;DHT22;9621;48.690;9.466;2023-06-14T10:04:04;29.60;34.60
18974;DHT22;9621;48.690;9.466;2023-06-14T10:06:32;29.40;34.70
18974;DHT22;9621;48.690;9.466;2023-06-14T10:08:59;29.00;34.50
18974;DHT22;9621;48.690;9.466;2023-06-14T10:11:27;28.60;34.10
18974;DHT22;9621;48.690;9.466;2023-06-14T10:13:55;28.40;34.30
18974;DHT22;9621;48.690;9.466;2023-06-14T10:16:27;28.10;34.10
18974;DHT22;9621;48.690;9.466;2023-06-14T10:19:07;27.70;34.70
18974;DHT22;9621;48.690;9.466;2023-06-14T10:21:51;27.30;35.20
18974;DHT22;9621;48.690;9.466;2023-06-14T10:24:29;27.00;36.30
18974;DHT22;9621;48.690;9.466;2023-06-14T10:26:58;26.80;36.80
18974;DHT22;9621;48.690;9.466;2023-06-14T10:29:26;26.90;36.20
18974;DHT22;9621;48.690;9.466;2023-06-14T10:31:58;27.00;36.90
18974;DHT22;9621;48.690;9.466;2023-06-14T10:34:27;27.00;37.10
18974;DHT22;9621;48.690;9.466;2023-06-14T10:37:02;26.80;37.00
18974;DHT22;9621;48.690;9.466;2023-06-14T10:39:30;26.70;36.90
18974;DHT22;9621;48.690;9.466;2023-06-14T10:41:58;26.40;37.00
18974;DHT22;9621;48.690;9.466;2023-06-14T10:44:40;26.10;37.50
18974;DHT22;9621;48.690;9.466;2023-06-14T10:47:10;26.00;37.70
18974;DHT22;9621;48.690;9.466;2023-06-14T10:49:40;26.20;37.70
18974;DHT22;9621;48.690;9.466;2023-06-14T10:52:09;26.60;37.40
18974;DHT22;9621;48.690;9.466;2023-06-14T10:54:56;26.90;37.30
18974;DHT22;9621;48.690;9.466;2023-06-14T10:57:22;27.30;37.40
18974;DHT22;9621;48.690;9.466;2023-06-14T10:59:50;27.70;37.50
18974;DHT22;9621;48.690;9.466;2023-06-14T11:02:35;28.20;37.40
18974;DHT22;9621;48.690;9.466;2023-06-14T11:05:14;28.60;36.80
18974;DHT22;9621;48.690;9.466;2023-06-14T11:08:04;29.00;35.50
18974;DHT22;9621;48.690;9.466;2023-06-14T11:10:37;29.30;36.40
18974;DHT22;9621;48.690;9.466;2023-06-14T11:13:04;29.70;35.00
18974;DHT22;9621;48.690;9.466;2023-06-14T11:15:32;30.00;35.50
18974;DHT22;9621;48.690;9.466;2023-06-14T11:18:01;30.30;36.00
18974;DHT22;9621;48.690;9.466;2023-06-14T11:20:31;30.60;35.00
18974;DHT22;9621;48.690;9.466;2023-06-14T11:22:58;30.80;33.80
18974;DHT22;9621;48.690;9.466;2023-06-14T11:25:26;30.90;34.20
18974;DHT22;9621;48.690;9.466;2023-06-14T11:27:54;30.80;33.70
18974;DHT22;9621;48.690;9.466;2023-06-14T11:30:22;30.60;33.20
18974;DHT22;9621;48.690;9.466;2023-06-14T11:32:50;30.10;33.30
18974;DHT22;9621;48.690;9.466;2023-06-14T11:35:17;29.60;33.30
18974;DHT22;9621;48.690;9.466;2023-06-14T11:37:46;29.20;33.70
18974;DHT22;9621;48.690;9.466;2023-06-14T11:40:13;29.00;34.60
18974;DHT22;9621;48.690;9.466;2023-06-14T11:42:41;28.90;35.10
18974;DHT22;9621;48.690;9.466;2023-06-14T11:45:09;29.00;35.40
18974;DHT22;9621;48.690;9.466;2023-06-14T11:47:37;29.20;35.50
18974;DHT22;9621;48.690;9.466;2023-06-14T11:50:05;29.40;35.00
18974;DHT22;9621;48.690;9.466;2023-06-14T11:52:34;29.70;35.40
18974;DHT22;9621;48.690;9.466;2023-06-14T11:55:05;29.90;34.70
18974;DHT22;9621;48.690;9.466;2023-06-14T11:57:34;30.10;34.30
18974;DHT22;9621;48.690;9.466;2023-06-14T12:00:03;30.30;34.80
18974;DHT22;9621;48.690;9.466;2023-06-14T12:02:38;30.50;34.60
18974;DHT22;9621;48.690;9.466;2023-06-14T12:05:07;30.80;34.20
18974;DHT22;9621;48.690;9.466;2023-06-14T12:07:36;31.10;33.70
18974;DHT22;9621;48.690;9.466;2023-06-14T12:10:08;31.20;33.00
18974;DHT22;9621;48.690;9.466;2023-06-14T12:12:38;31.10;31.70
18974;DHT22;9621;48.690;9.466;2023-06-14T12:15:07;30.90;32.10
18974;DHT22;9621;48.690;9.466;2023-06-14T12:17:35;30.60;33.10
18974;DHT22;9621;48.690;9.466;2023-06-14T12:20:08;30.50;33.00
18974;DHT22;9621;48.690;9.466;2023-06-14T12:22:36;30.30;32.70
18974;DHT22;9621;48.690;9.466;2023-06-14T12:25:04;30.10;32.50
18974;DHT22;9621;48.690;9.466;2023-06-14T12:27:32;30.00;32.80
18974;DHT22;9621;48.690;9.466;2023-06-14T12:30:00;29.80;32.60
18974;DHT22;9621;48.690;9.466;2023-06-14T12:32:28;29.60;32.80
18974;DHT22;9621;48.690;9.466;2023-06-14T12:34:55;29.50;33.30
18974;DHT22;9621;48.690;9.466;2023-06-14T12:37:22;29.40;33.00
18974;DHT22;9621;48.690;9.466;2023-06-14T12:39:50;29.40;33.60
18974;DHT22;9621;48.690;9.466;2023-06-14T12:42:17;29.50;34.20
18974;DHT22;9621;48.690;9.466;2023-06-14T12:44:45;29.50;33.40
18974;DHT22;9621;48.690;9.466;2023-06-14T12:47:12;29.70;33.20
18974;DHT22;9621;48.690;9.466;2023-06-14T12:49:39;29.80;33.40
18974;DHT22;9621;48.690;9.466;2023-06-14T12:52:08;29.90;33.00
18974;DHT22;9621;48.690;9.466;2023-06-14T12:54:35;30.00;33.20
18974;DHT22;9621;48.690;9.466;2023-06-14T12:57:05;30.10;32.50
18974;DHT22;9621;48.690;9.466;2023-06-14T12:59:32;30.30;32.60
18974;DHT22;9621;48.690;9.466;2023-06-14T13:02:11;30.40;32.70
18974;DHT22;9621;48.690;9.466;2023-06-14T13:04:37;30.60;31.70
18974;DHT22;9621;48.690;9.466;2023-06-14T13:07:05;30.70;31.90
18974;DHT22;9621;48.690;9.466;2023-06-14T13:09:32;30.70;31.80
18974;DHT22;9621;48.690;9.466;2023-06-14T13:11:59;30.70;31.40
18974;DHT22;9621;48.690;9.466;2023-06-14T13:14:27;30.50;31.10
18974;DHT22;9621;48.690;9.466;2023-06-14T13:16:53;30.20;31.20
18974;DHT22;9621;48.690;9.466;2023-06-14T13:19:22;29.90;31.60
18974;DHT22;9621;48.690;9.466;2023-06-14T13:21:49;29.50;32.10
18974;DHT22;9621;48.690;9.466;2023-06-14T13:24:16;29.20;32.80
18974;DHT22;9621;48.690;9.466;2023-06-14T13:26:43;29.00;32.70
18974;DHT22;9621;48.690;9.466;2023-06-14T13:29:10;28.70;32.30
18974;DHT22;9621;48.690;9.466;2023-06-14T13:31:37;28.40;33.20
18974;DHT22;9621;48.690;9.466;2023-06-14T13:34:04;28.20;34.10
18974;DHT22;9621;48.690;9.466;2023-06-14T13:36:32;28.10;34.40
18974;DHT22;9621;48.690;9.466;2023-06-14T13:38:59;28.40;34.80
18974;DHT22;9621;48.690;9.466;2023-06-14T13:43:57;29.10;35.40
18974;DHT22;9621;48.690;9.466;2023-06-14T13:46:24;29.40;34.10
18974;DHT22;9621;48.690;9.466;2023-06-14T13:48:51;29.50;33.70
18974;DHT22;9621;48.690;9.466;2023-06-14T13:51:19;29.70;33.50
18974;DHT22;9621;48.690;9.466;2023-06-14T13:53:48;29.70;33.40
18974;DHT22;9621;48.690;9.466;2023-06-14T13:56:16;29.70;33.10
18974;DHT22;9621;48.690;9.466;2023-06-14T13:58:43;29.60;32.60
18974;DHT22;9621;48.690;9.466;2023-06-14T14:01:11;29.50;33.30
18974;DHT22;9621;48.690;9.466;2023-06-14T14:03:38;29.40;32.80
18974;DHT22;9621;48.690;9.466;2023-06-14T14:06:05;29.20;32.30
18974;DHT22;9621;48.690;9.466;2023-06-14T14:08:32;28.90;32.40
18974;DHT22;9621;48.690;9.466;2023-06-14T14:11:01;28.60;33.20
18974;DHT22;9621;48.690;9.466;2023-06-14T14:13:28;28.40;32.80
18974;DHT22;9621;48.690;9.466;2023-06-14T14:15:54;28.30;33.50
18974;DHT22;9621;48.690;9.466;2023-06-14T14:18:21;28.30;34.00
18974;DHT22;9621;48.690;9.466;2023-06-14T14:20:49;28.40;34.00
18974;DHT22;9621;48.690;9.466;2023-06-14T14:23:15;28.50;34.50
18974;DHT22;9621;48.690;9.466;2023-06-14T14:25:43;28.80;34.00
18974;DHT22;9621;48.690;9.466;2023-06-14T14:28:11;29.00;33.40
18974;DHT22;9621;48.690;9.466;2023-06-14T14:30:39;29.10;32.50
18974;DHT22;9621;48.690;9.466;2023-06-14T14:33:06;29.20;32.20
18974;DHT22;9621;48.690;9.466;2023-06-14T14:35:33;29.30;32.30
18974;DHT22;9621;48.690;9.466;2023-06-14T14:38:00;29.40;32.30
18974;DHT22;9621;48.690;9.466;2023-06-14T14:40:28;29.40;32.40
18974;DHT22;9621;48.690;9.466;2023-06-14T14:42:55;29.40;32.60
18974;DHT22;9621;48.690;9.466;2023-06-14T14:45:23;29.30;32.70
18974;DHT22;9621;48.690;9.466;2023-06-14T14:47:50;29.00;32.00
18974;DHT22;9621;48.690;9.466;2023-06-14T14:50:17;28.60;32.50
18974;DHT22;9621;48.690;9.466;2023-06-14T14:52:44;28.20;32.60
18974;DHT22;9621;48.690;9.466;2023-06-14T14:55:11;27.80;33.40
18974;DHT22;9621;48.690;9.466;2023-06-14T14:57:38;27.50;33.90
18974;DHT22;9621;48.690;9.466;2023-06-14T15:00:06;27.30;34.20
18974;DHT22;9621;48.690;9.466;2023-06-14T15:02:35;27.20;34.60
18974;DHT22;9621;48.690;9.466;2023-06-14T15:05:02;27.20;34.50
18974;DHT22;9621;48.690;9.466;2023-06-14T15:07:30;27.30;34.50
18974;DHT22;9621;48.690;9.466;2023-06-14T15:09:57;27.40;34.90
18974;DHT22;9621;48.690;9.466;2023-06-14T15:12:24;27.50;34.50
18974;DHT22;9621;48.690;9.466;2023-06-14T15:14:52;27.70;34.30
18974;DHT22;9621;48.690;9.466;2023-06-14T15:17:20;27.80;34.10
18974;DHT22;9621;48.690;9.466;2023-06-14T15:19:51;27.90;34.50
18974;DHT22;9621;48.690;9.466;2023-06-14T15:22:18;27.90;33.90
18974;DHT22;9621;48.690;9.466;2023-06-14T15:24:45;27.90;34.20
18974;DHT22;9621;48.690;9.466;2023-06-14T15:27:12;28.10;34.50
18974;DHT22;9621;48.690;9.466;2023-06-14T15:29:40;28.10;34.20
18974;DHT22;9621;48.690;9.466;2023-06-14T15:32:08;28.20;34.60
18974;DHT22;9621;48.690;9.466;2023-06-14T15:34:36;28.20;34.00
18974;DHT22;9621;48.690;9.466;2023-06-14T15:37:06;28.40;34.20
18974;DHT22;9621;48.690;9.466;2023-06-14T15:39:36;28.40;34.00
18974;DHT22;9621;48.690;9.466;2023-06-14T15:42:05;28.50;33.80
18974;DHT22;9621;48.690;9.466;2023-06-14T15:44:33;28.60;33.40
18974;DHT22;9621;48.690;9.466;2023-06-14T15:47:00;28.50;33.60
18974;DHT22;9621;48.690;9.466;2023-06-14T15:49:27;28.60;33.70
18974;DHT22;9621;48.690;9.466;2023-06-14T15:51:53;28.60;34.00
18974;DHT22;9621;48.690;9.466;2023-06-14T15:54:22;28.60;33.50
18974;DHT22;9621;48.690;9.466;2023-06-14T15:56:49;28.60;33.20
18974;DHT22;9621;48.690;9.466;2023-06-14T15:59:16;28.60;33.60